Time;durP1;ratioP1;P1;durP2;ratioP2;P2;SDS_P1;SDS_P2;PMS_P1;PMS_P2;Temp;Humidity;BMP_temperature;BMP_pressure;BME280_temperature;BME280_humidity;BME280_pressure;Samples;Min_cycle;Max_cycle;Signal;HPM_P1;HPM_P2
2023/03/26 00:00:08;;;;;;;;;;;;;;;15.62;53.03;100692.44;2025552;29;20443;-58
2023/03/26 00:01:15;;;;;;;;;;;;;;;15.61;53.02;100694.38;2025541;29;20240;-57
2023/03/26 00:02:16;;;;;;;;;;;;;;;15.61;53.21;100696.31;2026178;29;20034;-57
2023/03/26 00:03:19;;;;;;;;;;;;;;;15.62;52.99;100695.16;2031954;29;19927;-56
2023/03/26 00:04:24;;;;;;;;;;;;;;;15.60;53.09;100695.50;2029601;29;20415;-57
2023/03/26 00:05:26;;;;;;;;;;;;;;;15.61;53.02;100696.31;2026491;29;19934;-56
2023/03/26 00:06:29;;;;;;;;;;;;;;;15.60;52.97;100690.06;2028085;29;20425;-57
2023/03/26 00:07:32;;;;;;;;;;;;;;;15.61;52.99;100707.19;2018237;29;19927;-57
2023/03/26 00:08:34;;;;;;;;;;;;;;;15.61;52.97;100709.91;2016129;29;19979;-57
2023/03/26 00:09:37;;;;;;;;;;;;;;;15.61;53.05;100712.63;2032209;29;19927;-57
2023/03/26 00:10:40;;;;;;;;;;;;;;;15.60;52.97;100706.41;2030485;29;19958;-56
2023/03/26 00:11:43;;;;;;;;;;;;;;;15.59;53.00;100713.00;2028460;29;19931;-57
2023/03/26 00:12:44;;;;;;;;;;;;;;;15.59;52.90;100710.28;2030379;29;20060;-57
2023/03/26 00:13:48;;;;;;;;;;;;;;;15.58;52.82;100716.91;2033535;29;19934;-55
2023/03/26 00:14:51;;;;;;;;;;;;;;;15.58;52.91;100716.91;2024977;29;19959;-57
2023/03/26 00:15:54;;;;;;;;;;;;;;;15.59;52.83;100715.72;2025760;29;19963;-55
2023/03/26 00:16:56;;;;;;;;;;;;;;;15.58;52.93;100719.63;2026589;29;20429;-55
2023/03/26 00:17:59;;;;;;;;;;;;;;;15.58;52.84;100714.19;2030936;29;19986;-58
2023/03/26 00:19:01;;;;;;;;;;;;;;;15.58;52.77;100716.13;2031292;29;19969;-58
2023/03/26 00:20:04;;;;;;;;;;;;;;;15.57;52.84;100723.50;2027002;29;19927;-58
2023/03/26 00:21:06;;;;;;;;;;;;;;;15.58;52.91;100721.56;2018487;29;19947;-57
2023/03/26 00:22:12;;;;;;;;;;;;;;;15.58;52.55;100724.28;2019252;29;19938;-58
2023/03/26 00:23:13;;;;;;;;;;;;;;;15.57;52.89;100723.50;2026167;29;19974;-58
2023/03/26 00:24:16;;;;;;;;;;;;;;;15.57;52.86;100718.03;2024897;29;19927;-57
2023/03/26 00:25:19;;;;;;;;;;;;;;;15.57;52.74;100717.28;2032071;29;19974;-57
2023/03/26 00:26:22;;;;;;;;;;;;;;;15.57;52.88;100717.28;2029535;29;19927;-58
2023/03/26 00:27:26;;;;;;;;;;;;;;;15.57;52.78;100722.72;2031890;29;20394;-58
2023/03/26 00:28:28;;;;;;;;;;;;;;;15.56;52.84;100719.22;2032178;29;19931;-57
2023/03/26 00:29:32;;;;;;;;;;;;;;;15.55;52.50;100720.38;2025858;29;20384;-58
2023/03/26 00:30:35;;;;;;;;;;;;;;;15.55;52.54;100728.53;2025309;29;19994;-58
2023/03/26 00:31:38;;;;;;;;;;;;;;;15.55;52.62;100723.09;2026165;29;20399;-58
2023/03/26 00:32:40;;;;;;;;;;;;;;;15.55;52.59;100731.28;2025354;29;19977;-58
2023/03/26 00:33:43;;;;;;;;;;;;;;;15.55;52.41;100725.81;2031857;29;19950;-57
2023/03/26 00:34:45;;;;;;;;;;;;;;;15.55;52.55;100725.03;2033320;29;20029;-58
2023/03/26 00:35:51;;;;;;;;;;;;;;;15.55;52.52;100736.72;2025035;29;19959;-58
2023/03/26 00:36:54;;;;;;;;;;;;;;;15.54;52.38;100724.25;2026670;29;20617;-58
2023/03/26 00:37:57;;;;;;;;;;;;;;;15.54;52.42;100723.47;2028726;29;21714;-58
2023/03/26 00:39:00;;;;;;;;;;;;;;;15.53;52.38;100722.69;2031622;29;19938;-58
2023/03/26 00:40:03;;;;;;;;;;;;;;;15.53;52.37;100728.13;2035047;29;19935;-58
2023/03/26 00:41:16;;;;;;;;;;;;;;;15.53;52.36;100722.69;2029814;29;20369;-57
2023/03/26 00:42:18;;;;;;;;;;;;;;;15.53;52.57;100728.13;2031913;29;19931;-57
2023/03/26 00:43:22;;;;;;;;;;;;;;;15.53;52.45;100728.13;2028056;29;20014;-58
2023/03/26 00:44:25;;;;;;;;;;;;;;;15.53;52.28;100730.06;2030630;29;19927;-58
2023/03/26 00:45:27;;;;;;;;;;;;;;;15.53;52.58;100727.34;2028194;29;19973;-58
2023/03/26 00:46:31;;;;;;;;;;;;;;;15.53;52.17;100730.06;2030148;29;19981;-58
2023/03/26 00:47:33;;;;;;;;;;;;;;;15.51;52.33;100735.88;2026221;29;19927;-58
2023/03/26 00:48:37;;;;;;;;;;;;;;;15.51;52.23;100727.72;2029438;29;19927;-58
2023/03/26 00:49:47;;;;;;;;;;;;;;;15.52;52.41;100729.31;2031927;29;19927;-58
2023/03/26 00:50:50;;;;;;;;;;;;;;;15.51;52.13;100727.72;2034479;29;19938;-58
2023/03/26 00:51:52;;;;;;;;;;;;;;;15.51;52.12;100727.72;2036053;29;19927;-58
2023/03/26 00:52:54;;;;;;;;;;;;;;;15.51;52.36;100735.09;2024355;29;19934;-58
2023/03/26 00:53:56;;;;;;;;;;;;;;;15.52;52.22;100731.22;2013792;29;19932;-57
2023/03/26 00:54:59;;;;;;;;;;;;;;;15.51;52.12;100737.81;2027306;29;20345;-58
2023/03/26 00:56:01;;;;;;;;;;;;;;;15.51;52.30;100738.59;2032045;29;20629;-59
2023/03/26 00:57:05;;;;;;;;;;;;;;;15.50;52.22;100739.78;2032931;29;19934;-59
2023/03/26 00:58:09;;;;;;;;;;;;;;;15.50;52.09;100734.31;2033448;29;19931;-58
2023/03/26 00:59:12;;;;;;;;;;;;;;;15.50;52.09;100739.78;2034448;29;19923;-57
2023/03/26 01:00:14;;;;;;;;;;;;;;;15.50;52.10;100734.31;2030855;29;19962;-58
2023/03/26 01:01:19;;;;;;;;;;;;;;;15.50;52.01;100736.25;2034417;29;20381;-58
2023/03/26 01:02:23;;;;;;;;;;;;;;;15.49;52.20;100734.72;2028899;29;19974;-58
2023/03/26 01:03:28;;;;;;;;;;;;;;;15.50;52.12;100738.97;2028505;29;19927;-58
2023/03/26 01:04:33;;;;;;;;;;;;;;;15.49;52.14;100734.72;2030234;29;19927;-58
2023/03/26 01:05:47;;;;;;;;;;;;;;;15.49;51.89;100740.16;2032435;29;20389;-58
2023/03/26 01:06:49;;;;;;;;;;;;;;;15.48;51.92;100733.91;2032440;29;19974;-58
2023/03/26 01:07:52;;;;;;;;;;;;;;;15.48;52.08;100731.19;2029970;29;19931;-57
2023/03/26 01:08:58;;;;;;;;;;;;;;;15.47;52.02;100735.09;2028236;29;19930;-56
2023/03/26 01:10:01;;;;;;;;;;;;;;;15.49;51.94;100732.75;2029628;29;20349;-55
2023/03/26 01:11:06;;;;;;;;;;;;;;;15.48;52.05;100741.28;2030236;29;20337;-56
2023/03/26 01:12:11;;;;;;;;;;;;;;;15.47;51.88;100735.09;2032908;29;19927;-54
2023/03/26 01:13:13;;;;;;;;;;;;;;;15.47;51.90;100732.34;2040571;29;19930;-56
2023/03/26 01:14:17;;;;;;;;;;;;;;;15.47;51.86;100729.63;2031083;29;20296;-56
2023/03/26 01:15:18;;;;;;;;;;;;;;;15.47;52.00;100732.34;2034527;29;20269;-55
2023/03/26 01:16:24;;;;;;;;;;;;;;;15.47;52.02;100735.09;2035044;29;19923;-56
2023/03/26 01:17:32;;;;;;;;;;;;;;;15.46;51.90;100733.50;2023260;29;19971;-56
2023/03/26 01:18:41;;;;;;;;;;;;;;;15.47;51.97;100737.81;2024107;29;19931;-55
2023/03/26 01:19:47;;;;;;;;;;;;;;;15.47;51.89;100729.63;2025278;29;19958;-56
2023/03/26 01:20:49;;;;;;;;;;;;;;;15.46;51.79;100728.06;2025515;29;19932;-57
2023/03/26 01:21:52;;;;;;;;;;;;;;;15.46;51.72;100727.28;2028717;29;19991;-56
2023/03/26 01:22:58;;;;;;;;;;;;;;;15.47;51.85;100734.28;2030936;29;19928;-57
2023/03/26 01:24:03;;;;;;;;;;;;;;;15.46;51.74;100733.50;2030758;29;19927;-56
2023/03/26 01:25:06;;;;;;;;;;;;;;;15.46;51.88;100738.94;2029905;29;20312;-56
2023/03/26 01:26:13;;;;;;;;;;;;;;;15.46;51.95;100738.19;2026464;29;20428;-57
2023/03/26 01:27:23;;;;;;;;;;;;;;;15.46;51.88;100738.19;2018473;29;20366;-57
2023/03/26 01:28:26;;;;;;;;;;;;;;;15.46;51.70;100738.19;2022633;29;20448;-57
2023/03/26 01:29:31;;;;;;;;;;;;;;;15.46;51.82;100728.06;2030951;29;19931;-55
2023/03/26 01:30:36;;;;;;;;;;;;;;;15.46;51.81;100733.50;2025936;29;19927;-55
2023/03/26 01:31:44;;;;;;;;;;;;;;;15.45;51.82;100725.72;2019803;29;19934;-57
2023/03/26 01:32:50;;;;;;;;;;;;;;;15.46;51.79;100730.78;2011616;29;20014;-57
2023/03/26 01:33:55;;;;;;;;;;;;;;;15.45;51.92;100721.06;2019808;29;19980;-55
2023/03/26 01:35:05;;;;;;;;;;;;;;;15.46;51.75;100725.34;2031041;29;20664;-56
2023/03/26 01:36:09;;;;;;;;;;;;;;;15.46;51.71;100730.78;2032183;29;20350;-56
2023/03/26 01:37:15;;;;;;;;;;;;;;;15.46;51.84;100728.06;2032744;29;19927;-57
2023/03/26 01:38:21;;;;;;;;;;;;;;;15.45;51.75;100721.06;2033174;29;20381;-56
2023/03/26 01:39:31;;;;;;;;;;;;;;;15.45;51.72;100721.06;2031579;29;19930;-56
2023/03/26 01:40:41;;;;;;;;;;;;;;;15.46;51.83;100730.78;2028307;29;20440;-57
2023/03/26 01:41:45;;;;;;;;;;;;;;;15.46;51.70;100730.78;2026773;29;19969;-58
2023/03/26 01:42:50;;;;;;;;;;;;;;;15.45;51.75;100712.91;2031725;29;19927;-56
2023/03/26 01:43:57;;;;;;;;;;;;;;;15.45;51.87;100720.28;2037445;29;20018;-58
2023/03/26 01:45:02;;;;;;;;;;;;;;;15.45;51.64;100721.06;2032665;29;19994;-57
2023/03/26 01:46:06;;;;;;;;;;;;;;;15.44;51.72;100716.78;2033058;29;19923;-57
2023/03/26 01:47:08;;;;;;;;;;;;;;;15.44;51.71;100722.22;2022996;29;20656;-57
2023/03/26 01:48:11;;;;;;;;;;;;;;;15.44;51.71;100719.50;2020253;29;20006;-57
2023/03/26 01:49:13;;;;;;;;;;;;;;;15.43;51.55;100712.50;2032529;29;19934;-56
2023/03/26 01:50:16;;;;;;;;;;;;;;;15.44;51.69;100713.28;2037847;29;19923;-58
2023/03/26 01:51:25;;;;;;;;;;;;;;;15.44;51.61;100708.63;2031202;29;20465;-57
2023/03/26 01:52:28;;;;;;;;;;;;;;;15.44;51.75;100708.63;2030973;29;19949;-57
2023/03/26 01:53:32;;;;;;;;;;;;;;;15.43;51.59;100715.22;2031038;29;20381;-57
2023/03/26 01:54:36;;;;;;;;;;;;;;;15.44;51.68;100716.78;2032016;29;19927;-56
2023/03/26 01:55:48;;;;;;;;;;;;;;;15.44;51.76;100710.56;2024721;29;19950;-57
2023/03/26 01:56:58;;;;;;;;;;;;;;;15.43;51.64;100712.50;2025714;29;19973;-57
2023/03/26 01:58:07;;;;;;;;;;;;;;;15.44;51.64;100703.19;2034630;29;19973;-58
2023/03/26 01:59:18;;;;;;;;;;;;;;;15.43;51.59;100709.78;2028836;29;20416;-57
2023/03/26 02:00:24;;;;;;;;;;;;;;;15.43;51.64;100707.03;2028727;29;19932;-58
2023/03/26 02:01:30;;;;;;;;;;;;;;;15.43;51.65;100715.22;2028811;29;19923;-57
2023/03/26 02:02:37;;;;;;;;;;;;;;;15.43;51.56;100704.31;2029076;29;19927;-57
2023/03/26 02:03:44;;;;;;;;;;;;;;;15.43;51.46;100701.59;2030201;29;19927;-55
2023/03/26 02:04:52;;;;;;;;;;;;;;;15.43;51.44;100700.84;2032018;29;19930;-57
2023/03/26 02:05:57;;;;;;;;;;;;;;;15.42;51.49;100700.06;2035989;29;19930;-57
2023/03/26 02:07:04;;;;;;;;;;;;;;;15.43;51.67;100704.31;2028106;29;20408;-57
2023/03/26 02:08:10;;;;;;;;;;;;;;;15.42;51.38;100699.25;2025406;29;19974;-57
2023/03/26 02:09:14;;;;;;;;;;;;;;;15.41;51.59;100698.50;2022142;29;20301;-57
2023/03/26 02:10:21;;;;;;;;;;;;;;;15.41;51.40;100693.06;2025969;29;20362;-57
2023/03/26 02:11:23;;;;;;;;;;;;;;;15.41;51.48;100693.06;2024622;29;19927;-57
2023/03/26 02:12:35;;;;;;;;;;;;;;;15.42;51.38;100688.38;2023781;29;20418;-57
2023/03/26 02:13:37;;;;;;;;;;;;;;;15.40;51.56;100686.03;2021879;29;20378;-56
2023/03/26 02:14:41;;;;;;;;;;;;;;;15.42;51.49;100688.38;2012723;29;20527;-57
2023/03/26 02:15:53;;;;;;;;;;;;;;;15.41;51.55;100681.38;2022054;29;20545;-57
2023/03/26 02:16:57;;;;;;;;;;;;;;;15.41;51.34;100686.81;2018763;29;19938;-55
2023/03/26 02:18:00;;;;;;;;;;;;;;;15.41;51.35;100684.91;2017078;29;20461;-56
2023/03/26 02:19:08;;;;;;;;;;;;;;;15.42;51.23;100688.38;2033242;29;20581;-57
2023/03/26 02:20:13;;;;;;;;;;;;;;;15.41;51.39;100684.09;2030409;29;19989;-57
2023/03/26 02:21:18;;;;;;;;;;;;;;;15.41;51.27;100686.81;2032173;29;19930;-57
2023/03/26 02:22:21;;;;;;;;;;;;;;;15.40;51.47;100680.59;2030701;29;20312;-55
2023/03/26 02:23:23;;;;;;;;;;;;;;;15.40;51.39;100680.59;2029213;29;20008;-57
2023/03/26 02:24:25;;;;;;;;;;;;;;;15.40;51.09;100683.31;2025321;29;19924;-57
2023/03/26 02:25:34;;;;;;;;;;;;;;;15.40;51.36;100685.25;2022557;29;19924;-57
2023/03/26 02:26:36;;;;;;;;;;;;;;;15.40;51.22;100680.59;2024425;29;20412;-56
2023/03/26 02:27:43;;;;;;;;;;;;;;;15.39;51.35;100673.59;2027349;29;19928;-57
2023/03/26 02:28:45;;;;;;;;;;;;;;;15.40;51.17;100680.59;2016427;29;20033;-56
2023/03/26 02:29:49;;;;;;;;;;;;;;;15.40;51.39;100680.59;2024701;29;19966;-55
2023/03/26 02:30:56;;;;;;;;;;;;;;;15.40;51.18;100672.44;2023510;29;19927;-57
2023/03/26 02:32:01;;;;;;;;;;;;;;;15.40;51.28;100686.03;2014440;29;19935;-55
2023/03/26 02:33:02;;;;;;;;;;;;;;;15.39;51.20;100684.47;2029998;29;19927;-57
2023/03/26 02:34:13;;;;;;;;;;;;;;;15.40;51.18;100682.53;2035289;29;19926;-56
2023/03/26 02:35:22;;;;;;;;;;;;;;;15.40;51.25;100675.16;2029343;29;19931;-56
2023/03/26 02:36:31;;;;;;;;;;;;;;;15.40;51.20;100674.38;2026163;29;19927;-56
2023/03/26 02:37:35;;;;;;;;;;;;;;;15.40;51.10;100677.09;2032340;29;19923;-57
2023/03/26 02:38:51;;;;;;;;;;;;;;;15.40;51.13;100675.16;2023432;29;19928;-57
2023/03/26 02:39:53;;;;;;;;;;;;;;;15.40;51.21;100672.44;2019956;29;19928;-57
2023/03/26 02:41:05;;;;;;;;;;;;;;;15.40;51.30;100675.16;2020795;29;20341;-56
2023/03/26 02:42:22;;;;;;;;;;;;;;;15.40;51.21;100669.72;2020665;29;19928;-57
2023/03/26 02:43:25;;;;;;;;;;;;;;;15.40;51.08;100663.47;2023445;29;20373;-57
2023/03/26 02:44:26;;;;;;;;;;;;;;;15.39;51.12;100673.59;2028546;29;19927;-57
2023/03/26 02:45:32;;;;;;;;;;;;;;;15.38;51.03;100672.03;2025618;29;19992;-57
2023/03/26 02:46:53;;;;;;;;;;;;;;;15.39;51.18;100668.16;2031550;29;19954;-56
2023/03/26 02:48:15;;;;;;;;;;;;;;;15.39;51.29;100670.09;2029430;29;19950;-55
2023/03/26 02:49:27;;;;;;;;;;;;;;;15.39;51.79;100662.72;2017523;29;19931;-57
2023/03/26 02:50:31;;;;;;;;;;;;;;;15.39;51.04;100668.16;2019353;29;19970;-57
2023/03/26 02:51:55;;;;;;;;;;;;;;;15.39;51.30;100670.88;2026860;29;20486;-57
2023/03/26 02:53:00;;;;;;;;;;;;;;;15.39;51.05;100673.59;2031166;29;20017;-58
2023/03/26 02:54:06;;;;;;;;;;;;;;;15.38;51.15;100672.03;2029275;29;19927;-58
2023/03/26 02:55:11;;;;;;;;;;;;;;;15.40;51.12;100674.38;2031920;29;19931;-59
2023/03/26 02:56:17;;;;;;;;;;;;;;;15.38;50.82;100669.31;2033274;29;20014;-58
2023/03/26 02:57:32;;;;;;;;;;;;;;;15.38;51.03;100663.84;2025790;29;19983;-57
2023/03/26 02:58:53;;;;;;;;;;;;;;;15.38;50.91;100661.13;2019131;29;19927;-58
2023/03/26 02:59:54;;;;;;;;;;;;;;;15.38;51.10;100666.56;2030479;29;19934;-58
2023/03/26 03:01:16;;;;;;;;;;;;;;;15.39;51.05;100665.44;2024618;29;20042;-58
2023/03/26 03:02:28;;;;;;;;;;;;;;;15.39;50.88;100667.38;2020344;29;19959;-58
2023/03/26 03:03:36;;;;;;;;;;;;;;;15.38;50.86;100650.25;2020835;29;20389;-57
2023/03/26 03:04:38;;;;;;;;;;;;;;;15.38;50.90;100661.13;2031444;29;20010;-58
2023/03/26 03:05:41;;;;;;;;;;;;;;;15.38;51.13;100661.13;2029131;29;19927;-58
2023/03/26 03:06:46;;;;;;;;;;;;;;;15.39;50.74;100653.75;2024541;29;19927;-57
2023/03/26 03:07:48;;;;;;;;;;;;;;;15.38;50.97;100655.69;2023591;29;19923;-58
2023/03/26 03:08:52;;;;;;;;;;;;;;;15.38;50.95;100658.41;2023694;29;19956;-58
2023/03/26 03:10:20;;;;;;;;;;;;;;;15.39;50.88;100661.94;2029195;29;20341;-58
2023/03/26 03:11:41;;;;;;;;;;;;;;;15.38;50.82;100654.91;2015644;29;20667;-58
2023/03/26 03:12:43;;;;;;;;;;;;;;;15.38;50.91;100655.69;2018918;29;19975;-58
2023/03/26 03:13:46;;;;;;;;;;;;;;;15.38;50.92;100650.25;2025567;29;20273;-58
2023/03/26 03:14:56;;;;;;;;;;;;;;;15.38;50.75;100658.41;2030590;29;19926;-57
2023/03/26 03:15:59;;;;;;;;;;;;;;;15.38;50.80;100652.97;2016926;29;19931;-58
2023/03/26 03:17:01;;;;;;;;;;;;;;;15.37;50.86;100651.41;2029352;29;19931;-57
2023/03/26 03:18:04;;;;;;;;;;;;;;;15.38;50.87;100661.13;2020437;29;19978;-58
2023/03/26 03:19:06;;;;;;;;;;;;;;;15.38;50.78;100658.41;2021707;29;19927;-57
2023/03/26 03:20:14;;;;;;;;;;;;;;;15.38;50.69;100655.69;2018710;29;19927;-58
2023/03/26 03:21:16;;;;;;;;;;;;;;;15.38;50.83;100650.25;2010957;29;19928;-56
2023/03/26 03:22:19;;;;;;;;;;;;;;;15.37;50.81;100656.84;2017761;29;19964;-58
2023/03/26 03:23:23;;;;;;;;;;;;;;;15.37;50.86;100659.56;2021672;29;19923;-57
2023/03/26 03:24:32;;;;;;;;;;;;;;;15.38;50.78;100654.91;2023228;29;19951;-58
2023/03/26 03:25:34;;;;;;;;;;;;;;;15.37;50.76;100656.84;2022603;29;20384;-58
2023/03/26 03:26:37;;;;;;;;;;;;;;;15.37;50.73;100645.94;2025019;29;19927;-58
2023/03/26 03:27:54;;;;;;;;;;;;;;;15.37;50.50;100661.50;2020141;29;19932;-58
2023/03/26 03:28:57;;;;;;;;;;;;;;;15.38;50.77;100652.19;2025961;29;19987;-58
2023/03/26 03:29:59;;;;;;;;;;;;;;;15.37;50.77;100654.13;2028510;29;20389;-56
2023/03/26 03:31:23;;;;;;;;;;;;;;;15.37;50.70;100647.88;2005926;29;19936;-57
2023/03/26 03:32:26;;;;;;;;;;;;;;;15.37;50.67;100659.56;2025304;29;19927;-58
2023/03/26 03:33:33;;;;;;;;;;;;;;;15.37;50.64;100650.59;2032585;29;20042;-58
2023/03/26 03:34:37;;;;;;;;;;;;;;;15.36;50.73;100652.56;2026611;29;19961;-58
2023/03/26 03:35:41;;;;;;;;;;;;;;;15.37;50.94;100647.88;2018536;29;19928;-58
2023/03/26 03:36:47;;;;;;;;;;;;;;;15.37;50.61;100654.13;2035205;29;20744;-58
2023/03/26 03:38:02;;;;;;;;;;;;;;;15.36;50.86;100649.84;2025818;29;19931;-58
2023/03/26 03:39:12;;;;;;;;;;;;;;;15.37;50.67;100642.44;2019768;29;20417;-58
2023/03/26 03:40:13;;;;;;;;;;;;;;;15.37;50.67;100637.00;2020392;29;19966;-57
2023/03/26 03:41:17;;;;;;;;;;;;;;;15.37;50.57;100645.16;2028059;29;20313;-57
2023/03/26 03:42:20;;;;;;;;;;;;;;;15.37;50.75;100642.44;2032138;29;19966;-57
2023/03/26 03:43:27;;;;;;;;;;;;;;;15.37;50.64;100647.88;2026520;29;19950;-58
2023/03/26 03:44:37;;;;;;;;;;;;;;;15.37;50.64;100642.44;2030352;29;19927;-58
2023/03/26 03:45:48;;;;;;;;;;;;;;;15.36;50.58;100641.69;2023676;29;19935;-57
2023/03/26 03:47:03;;;;;;;;;;;;;;;15.36;50.74;100647.13;2024646;29;20411;-58
2023/03/26 03:48:06;;;;;;;;;;;;;;;15.36;50.89;100641.69;2022773;29;20448;-59
2023/03/26 03:49:13;;;;;;;;;;;;;;;15.36;50.68;100636.25;2031473;29;20419;-56
2023/03/26 03:50:16;;;;;;;;;;;;;;;15.37;50.75;100647.88;2031501;29;20477;-58
2023/03/26 03:51:41;;;;;;;;;;;;;;;15.37;50.50;100643.22;2031327;29;20377;-58
2023/03/26 03:52:53;;;;;;;;;;;;;;;15.36;50.57;100652.56;2027032;29;19931;-58
2023/03/26 03:53:54;;;;;;;;;;;;;;;15.36;50.60;100651.78;2021765;29;19931;-58
2023/03/26 03:55:28;;;;;;;;;;;;;;;15.36;50.61;100649.84;2024953;29;20301;-58
2023/03/26 03:56:30;;;;;;;;;;;;;;;15.36;50.71;100658.00;2030880;29;19923;-57
2023/03/26 03:58:02;;;;;;;;;;;;;;;15.36;50.66;100652.56;2019220;29;20294;-58
2023/03/26 03:59:07;;;;;;;;;;;;;;;15.36;50.65;100649.06;2018416;29;20374;-58
2023/03/26 04:00:13;;;;;;;;;;;;;;;15.35;50.61;100653.69;2014421;29;19927;-58
2023/03/26 04:01:25;;;;;;;;;;;;;;;15.36;50.60;100649.06;2024316;29;20482;-58
2023/03/26 04:02:35;;;;;;;;;;;;;;;15.35;50.63;100650.97;2027011;29;19931;-58
2023/03/26 04:03:40;;;;;;;;;;;;;;;15.35;50.56;100653.69;2014729;29;19955;-58
2023/03/26 04:04:49;;;;;;;;;;;;;;;15.35;50.65;100650.97;2013372;29;20719;-58
2023/03/26 04:05:54;;;;;;;;;;;;;;;15.36;50.53;100652.56;2022358;29;20042;-58
2023/03/26 04:06:59;;;;;;;;;;;;;;;15.36;50.51;100644.41;2026816;29;20449;-60
2023/03/26 04:08:09;;;;;;;;;;;;;;;15.35;50.70;100650.97;2031229;29;19927;-58
2023/03/26 04:09:19;;;;;;;;;;;;;;;15.35;50.45;100656.41;2028802;29;20443;-58
2023/03/26 04:10:22;;;;;;;;;;;;;;;15.35;50.59;100653.69;2023476;29;19950;-62
2023/03/26 04:11:43;;;;;;;;;;;;;;;15.35;50.52;100656.41;2034332;29;19933;-57
2023/03/26 04:13:08;;;;;;;;;;;;;;;15.35;50.45;100655.66;2025837;29;19983;-58
2023/03/26 04:14:35;;;;;;;;;;;;;;;15.35;50.59;100650.97;2019815;29;19958;-58
2023/03/26 04:15:48;;;;;;;;;;;;;;;15.34;50.64;100654.88;2029247;29;20030;-58
2023/03/26 04:16:50;;;;;;;;;;;;;;;15.34;50.50;100654.88;2036718;29;20398;-57
2023/03/26 04:17:52;;;;;;;;;;;;;;;15.34;50.41;100654.09;2019563;29;20431;-58
2023/03/26 04:18:57;;;;;;;;;;;;;;;15.34;50.41;100659.53;2019296;29;19979;-58
2023/03/26 04:20:09;;;;;;;;;;;;;;;15.35;50.41;100655.66;2028240;29;20021;-58
2023/03/26 04:21:14;;;;;;;;;;;;;;;15.34;50.48;100652.16;2029813;29;19988;-57
2023/03/26 04:22:18;;;;;;;;;;;;;;;15.33;50.47;100656.03;2029683;29;20049;-59
2023/03/26 04:23:42;;;;;;;;;;;;;;;15.34;50.46;100657.59;2030811;29;20482;-58
2023/03/26 04:24:54;;;;;;;;;;;;;;;15.34;50.44;100656.81;2030128;29;19931;-57
2023/03/26 04:26:29;;;;;;;;;;;;;;;15.33;50.11;100647.88;2023434;29;19959;-57
2023/03/26 04:27:42;;;;;;;;;;;;;;;15.33;50.22;100641.66;2022609;29;20444;-58
2023/03/26 04:28:53;;;;;;;;;;;;;;;15.31;50.18;100650.19;2023627;29;19924;-58
2023/03/26 04:30:00;;;;;;;;;;;;;;;15.32;50.29;100651.75;2025787;29;20665;-58
2023/03/26 04:31:05;;;;;;;;;;;;;;;15.33;50.40;100649.81;2025714;29;20401;-58
2023/03/26 04:32:18;;;;;;;;;;;;;;;15.32;50.08;100648.25;2026386;29;20018;-58
2023/03/26 04:33:21;;;;;;;;;;;;;;;15.32;50.13;100650.97;2023086;29;19924;-57
2023/03/26 04:34:23;;;;;;;;;;;;;;;15.32;50.25;100649.00;2018809;29;20409;-59
2023/03/26 04:35:40;;;;;;;;;;;;;;;15.32;50.11;100649.00;2028288;29;19927;-58
2023/03/26 04:36:45;;;;;;;;;;;;;;;15.31;50.18;100650.19;2028647;29;19927;-59
2023/03/26 04:37:47;;;;;;;;;;;;;;;15.31;50.00;100647.47;2022110;29;19963;-58
2023/03/26 04:39:01;;;;;;;;;;;;;;;15.30;50.01;100645.88;2020540;29;19928;-57
2023/03/26 04:40:22;;;;;;;;;;;;;;;15.30;49.90;100647.84;2025092;29;19927;-59
2023/03/26 04:41:32;;;;;;;;;;;;;;;15.29;50.06;100643.53;2022029;29;19979;-57
2023/03/26 04:42:40;;;;;;;;;;;;;;;15.29;49.86;100644.34;2025192;29;19930;-56
2023/03/26 04:43:50;;;;;;;;;;;;;;;15.28;49.95;100650.94;2022893;29;20034;-58
2023/03/26 04:45:08;;;;;;;;;;;;;;;15.29;49.79;100647.06;2022238;29;20344;-58
2023/03/26 04:46:09;;;;;;;;;;;;;;;15.28;49.98;100648.22;2025317;29;20305;-58
2023/03/26 04:47:23;;;;;;;;;;;;;;;15.28;49.66;100645.50;2028425;29;19923;-58
2023/03/26 04:48:25;;;;;;;;;;;;;;;15.27;49.84;100646.63;2038504;29;20320;-57
2023/03/26 04:49:28;;;;;;;;;;;;;;;15.27;49.83;100649.34;2031009;29;20329;-58
2023/03/26 04:50:29;;;;;;;;;;;;;;;15.28;49.64;100650.16;2016633;29;19923;-59
2023/03/26 04:51:37;;;;;;;;;;;;;;;15.28;49.84;100650.16;2021006;29;20677;-57
2023/03/26 04:52:45;;;;;;;;;;;;;;;15.27;49.86;100649.34;2025646;29;19931;-58
2023/03/26 04:54:18;;;;;;;;;;;;;;;15.26;49.68;100653.25;2025744;29;20006;-59
2023/03/26 04:55:31;;;;;;;;;;;;;;;15.26;49.76;100644.28;2032437;29;20288;-57
2023/03/26 04:56:45;;;;;;;;;;;;;;;15.26;49.71;100647.81;2030318;29;20258;-59
2023/03/26 04:58:03;;;;;;;;;;;;;;;15.26;49.69;100644.28;2030192;29;20657;-59
2023/03/26 04:59:28;;;;;;;;;;;;;;;15.25;50.02;100648.97;2027837;29;19927;-57
2023/03/26 05:00:32;;;;;;;;;;;;;;;15.25;49.54;100651.69;2033800;29;19989;-59
2023/03/26 05:01:36;;;;;;;;;;;;;;;15.25;49.78;100650.91;2025014;29;20461;-58
2023/03/26 05:02:40;;;;;;;;;;;;;;;15.25;49.59;100653.63;2022580;29;20472;-58
2023/03/26 05:03:44;;;;;;;;;;;;;;;15.24;49.75;100652.84;2020970;29;19927;-58
2023/03/26 05:04:49;;;;;;;;;;;;;;;15.24;49.50;100654.78;2013944;29;19935;-57
2023/03/26 05:05:51;;;;;;;;;;;;;;;15.25;49.54;100653.63;2023460;29;20407;-58
2023/03/26 05:06:55;;;;;;;;;;;;;;;15.24;49.53;100655.56;2028277;29;19931;-58
2023/03/26 05:08:07;;;;;;;;;;;;;;;15.24;49.57;100650.13;2026588;29;19970;-58
2023/03/26 05:09:10;;;;;;;;;;;;;;;15.24;49.61;100654.78;2025423;29;19935;-58
2023/03/26 05:10:36;;;;;;;;;;;;;;;15.23;49.52;100648.56;2011069;29;19924;-59
2023/03/26 05:11:44;;;;;;;;;;;;;;;15.23;49.02;100659.44;2018907;29;19932;-58
2023/03/26 05:12:46;;;;;;;;;;;;;;;15.23;49.42;100648.56;2019980;29;20425;-59
2023/03/26 05:13:56;;;;;;;;;;;;;;;15.23;49.27;100648.56;2027541;29;19923;-57
2023/03/26 05:14:59;;;;;;;;;;;;;;;15.22;49.51;100652.44;2024162;29;20381;-57
2023/03/26 05:16:22;;;;;;;;;;;;;;;15.22;49.27;100652.44;2023466;29;19977;-57
2023/03/26 05:17:33;;;;;;;;;;;;;;;15.22;49.29;100648.94;2023644;29;19963;-57
2023/03/26 05:18:36;;;;;;;;;;;;;;;15.23;49.20;100653.22;2020279;29;20357;-56
2023/03/26 05:19:40;;;;;;;;;;;;;;;15.22;49.37;100652.44;2015591;29;19938;-56
2023/03/26 05:20:43;;;;;;;;;;;;;;;15.22;49.23;100648.94;2026083;29;19927;-57
2023/03/26 05:21:45;;;;;;;;;;;;;;;15.20;49.35;100649.31;2025669;29;20312;-56
2023/03/26 05:22:48;;;;;;;;;;;;;;;15.21;49.28;100650.88;2031219;29;19934;-57
2023/03/26 05:23:57;;;;;;;;;;;;;;;15.20;49.29;100646.59;2030297;29;19926;-58
2023/03/26 05:24:59;;;;;;;;;;;;;;;15.20;48.93;100652.03;2028828;29;19974;-57
2023/03/26 05:26:06;;;;;;;;;;;;;;;15.22;49.10;100652.44;2028149;29;19931;-58
2023/03/26 05:27:13;;;;;;;;;;;;;;;15.20;48.88;100646.59;2033085;29;20068;-58
2023/03/26 05:28:14;;;;;;;;;;;;;;;15.19;49.00;100642.28;2025421;29;19987;-58
2023/03/26 05:29:27;;;;;;;;;;;;;;;15.19;49.20;100647.72;2016169;29;19935;-56
2023/03/26 05:30:29;;;;;;;;;;;;;;;15.19;49.09;100646.97;2016131;29;19927;-57
2023/03/26 05:31:36;;;;;;;;;;;;;;;15.19;48.94;100642.28;2025905;29;19931;-56
2023/03/26 05:32:38;;;;;;;;;;;;;;;15.18;48.96;100646.19;2029840;29;20460;-56
2023/03/26 05:33:41;;;;;;;;;;;;;;;15.19;48.87;100646.97;2029463;29;20352;-58
2023/03/26 05:34:45;;;;;;;;;;;;;;;15.18;49.06;100640.75;2027919;29;20017;-56
2023/03/26 05:35:58;;;;;;;;;;;;;;;15.18;49.15;100648.91;2018143;29;19971;-57
2023/03/26 05:37:02;;;;;;;;;;;;;;;15.18;49.01;100643.47;2025861;29;19930;-58
2023/03/26 05:38:27;;;;;;;;;;;;;;;15.18;48.94;100646.19;2018326;29;20032;-57
2023/03/26 05:39:30;;;;;;;;;;;;;;;15.18;48.96;100646.19;2008326;29;19932;-58
2023/03/26 05:41:02;;;;;;;;;;;;;;;15.17;49.11;100644.63;2023376;29;19928;-58
2023/03/26 05:42:06;;;;;;;;;;;;;;;15.17;48.81;100644.63;2012444;29;20334;-58
2023/03/26 05:43:24;;;;;;;;;;;;;;;15.17;48.67;100647.34;2018429;29;19979;-58